Corpus Christi, Texas
Current Conditions -  °F | °C
As of 5:51 PM on Saturday 22 Nov 2014 (Local Time) from KCRP Reporting Station
Overcast Overcast  
Wind Chill: 73°   Ceiling: 14000
Heat Index: 73°   Visibility: 10mi
Dew Point: 69°   Wind: 12mph
Humidity: 87%   Direction: 170°S
Pressure: 29.76"   Gusts: NA
Location:  27.8°N, 97.4°W
Report Text: KCRP 222351Z 17010KT 10SM FEW014 SCT048 BKN140 OVC230 23/21 A2976 RMK AO2 SLP076 60000 T02280206 10244 20228 55008 $
Loading
Personal Weather Stations






























Interactive Weather Map New forecast layout! Learn more

10-Day Weather Forecast

Advertisements
Track Severe Weather on mobile